createdAt,value
2023-01-23T00:01:22.545Z,75.40
2023-01-23T00:03:50.580Z,77.33
2023-01-23T00:06:19.154Z,74.17
2023-01-23T00:08:48.928Z,77.17
2023-01-23T00:11:18.807Z,76.23
2023-01-23T00:13:46.774Z,76.97
2023-01-23T00:16:16.572Z,76.90
2023-01-23T00:18:44.871Z,80.97
2023-01-23T00:21:14.090Z,79.80
2023-01-23T00:23:43.660Z,77.23
2023-01-23T00:26:16.751Z,78.17
2023-01-23T00:28:45.575Z,79.43
2023-01-23T00:31:18.599Z,78.40
2023-01-23T00:33:46.751Z,77.40
2023-01-23T00:36:16.332Z,78.60
2023-01-23T00:38:44.393Z,80.07
2023-01-23T00:41:13.688Z,78.43
2023-01-23T00:43:41.770Z,82.23
2023-01-23T00:46:09.768Z,80.20
2023-01-23T00:48:37.647Z,80.07
2023-01-23T00:51:06.118Z,78.77
2023-01-23T00:53:34.133Z,79.57
2023-01-23T00:56:02.128Z,76.60
2023-01-23T00:58:31.506Z,81.67
2023-01-23T01:00:59.440Z,82.77
2023-01-23T01:03:27.469Z,78.80
2023-01-23T01:05:55.445Z,81.80
2023-01-23T01:08:23.375Z,79.57
2023-01-23T01:10:51.716Z,83.13
2023-01-23T01:13:21.507Z,81.73
2023-01-23T01:15:52.564Z,79.63
2023-01-23T01:18:22.668Z,80.63
2023-01-23T01:20:50.891Z,79.43
2023-01-23T01:23:19.074Z,79.40
2023-01-23T01:25:47.271Z,78.97
2023-01-23T01:28:15.439Z,77.47
2023-01-23T01:30:43.442Z,81.60
2023-01-23T01:33:12.836Z,79.47
2023-01-23T01:35:42.260Z,79.00
2023-01-23T01:38:10.291Z,79.03
2023-01-23T01:40:39.112Z,81.97
2023-01-23T01:43:09.258Z,83.67
2023-01-23T01:46:01.106Z,76.20
2023-01-23T01:48:33.062Z,81.00
2023-01-23T01:51:04.505Z,80.20
2023-01-23T01:53:34.106Z,77.77
2023-01-23T01:56:02.251Z,76.77
2023-01-23T01:58:30.616Z,79.40
2023-01-23T02:00:58.593Z,82.27
2023-01-23T02:03:27.483Z,79.37
2023-01-23T02:05:56.985Z,81.17
2023-01-23T02:08:31.581Z,80.30
2023-01-23T02:11:02.118Z,77.70
2023-01-23T02:13:33.782Z,77.90
2023-01-23T02:16:05.285Z,76.30
2023-01-23T02:18:34.565Z,75.40
2023-01-23T02:21:07.127Z,79.30
2023-01-23T02:23:55.212Z,78.57
2023-01-23T02:26:29.920Z,81.57
2023-01-23T02:28:59.292Z,79.50
2023-01-23T02:31:27.956Z,78.43
2023-01-23T02:33:57.698Z,80.07
2023-01-23T02:36:28.201Z,78.50
2023-01-23T02:39:03.548Z,78.30
2023-01-23T02:41:34.892Z,78.90
2023-01-23T02:44:08.306Z,77.10
2023-01-23T02:46:36.291Z,78.13
2023-01-23T02:49:04.230Z,78.73
2023-01-23T02:51:32.582Z,78.60
2023-01-23T02:54:00.594Z,76.93
2023-01-23T02:56:28.708Z,78.50
2023-01-23T02:59:27.163Z,74.97
2023-01-23T03:01:55.307Z,77.47
2023-01-23T03:04:23.305Z,77.10
2023-01-23T03:06:51.384Z,75.93
2023-01-23T03:09:20.360Z,75.93
2023-01-23T03:11:48.860Z,79.70
2023-01-23T03:14:20.674Z,77.77
2023-01-23T03:16:51.433Z,79.50
2023-01-23T03:19:20.938Z,81.30
2023-01-23T03:21:48.973Z,79.93
2023-01-23T03:24:17.750Z,79.67
2023-01-23T03:26:47.432Z,81.70
2023-01-23T03:29:34.331Z,78.73
2023-01-23T03:32:04.372Z,79.30
2023-01-23T03:34:32.655Z,78.63
2023-01-23T03:37:01.299Z,77.00
2023-01-23T03:39:46.067Z,78.03
2023-01-23T03:42:14.019Z,71.90
2023-01-23T03:44:42.150Z,81.73
2023-01-23T03:47:11.571Z,80.83
2023-01-23T03:49:39.614Z,80.63
2023-01-23T03:52:07.796Z,79.57
2023-01-23T03:54:35.906Z,82.30
2023-01-23T03:57:03.928Z,84.90
2023-01-23T03:59:31.910Z,83.10
2023-01-23T04:02:00.959Z,84.70
2023-01-23T04:04:30.294Z,81.20
2023-01-23T04:06:58.446Z,80.43
2023-01-23T04:09:28.026Z,82.87
2023-01-23T04:11:56.257Z,80.70
2023-01-23T04:14:24.740Z,81.27
2023-01-23T04:16:53.945Z,81.20
2023-01-23T04:19:22.059Z,81.20
2023-01-23T04:21:51.484Z,80.20
2023-01-23T04:24:19.670Z,85.40
2023-01-23T04:26:47.708Z,83.53
2023-01-23T04:29:16.924Z,83.83
2023-01-23T04:31:45.307Z,87.60
2023-01-23T04:34:13.524Z,83.80
2023-01-23T04:36:41.497Z,84.50
2023-01-23T04:39:10.920Z,84.60
2023-01-23T04:41:38.896Z,85.40
2023-01-23T04:44:20.789Z,87.57
2023-01-23T04:46:49.929Z,90.03
2023-01-23T04:49:18.854Z,86.63
2023-01-23T04:51:48.221Z,79.87
2023-01-23T04:54:18.677Z,83.20
2023-01-23T04:56:46.804Z,83.27
2023-01-23T04:59:15.856Z,86.17
2023-01-23T05:01:44.161Z,76.37
2023-01-23T05:04:12.296Z,80.07
2023-01-23T05:06:40.532Z,83.00
2023-01-23T05:09:09.016Z,82.47
2023-01-23T05:11:38.319Z,79.63
2023-01-23T05:14:06.450Z,83.43
2023-01-23T05:16:34.487Z,76.80
2023-01-23T05:19:02.534Z,77.20
2023-01-23T05:21:30.502Z,78.60
2023-01-23T05:23:58.427Z,81.50
2023-01-23T05:26:26.416Z,83.20
2023-01-23T05:28:55.764Z,82.20
2023-01-23T05:31:23.827Z,80.80
2023-01-23T05:33:51.864Z,76.10
2023-01-23T05:36:19.781Z,76.83
2023-01-23T05:38:47.794Z,80.50
2023-01-23T05:41:15.737Z,81.53
2023-01-23T05:43:44.322Z,82.50
2023-01-23T05:46:13.688Z,78.93
2023-01-23T05:48:41.659Z,81.50
2023-01-23T05:51:10.038Z,87.17
2023-01-23T05:53:38.059Z,78.10
2023-01-23T05:56:09.717Z,82.93
2023-01-23T05:58:37.707Z,85.30
2023-01-23T06:01:06.284Z,81.00
2023-01-23T06:03:35.715Z,81.80
2023-01-23T06:06:03.776Z,84.57
2023-01-23T06:08:31.736Z,90.97
2023-01-23T06:11:00.506Z,85.00
2023-01-23T06:13:29.114Z,80.63
2023-01-23T06:15:58.147Z,83.17
2023-01-23T06:18:26.623Z,84.73
2023-01-23T06:21:00.386Z,83.37
2023-01-23T06:23:29.038Z,84.83
2023-01-23T06:26:01.491Z,82.70
2023-01-23T06:28:29.659Z,82.93
2023-01-23T06:31:02.388Z,84.40
2023-01-23T06:33:30.536Z,81.93
2023-01-23T06:36:00.603Z,78.80
2023-01-23T06:38:29.452Z,80.53
2023-01-23T06:40:57.813Z,78.90
2023-01-23T06:43:26.781Z,80.67
2023-01-23T06:45:54.835Z,79.47
2023-01-23T06:48:22.944Z,80.50
2023-01-23T06:50:50.955Z,80.67
2023-01-23T06:53:20.497Z,82.17
2023-01-23T06:55:48.447Z,85.10
2023-01-23T06:58:16.494Z,86.37
2023-01-23T07:00:45.179Z,88.80
2023-01-23T07:03:15.276Z,91.93
2023-01-23T07:05:44.029Z,84.77
2023-01-23T07:08:12.107Z,79.33
2023-01-23T07:10:41.464Z,83.10
2023-01-23T07:13:12.122Z,80.70
2023-01-23T07:15:41.192Z,82.53
2023-01-23T07:18:10.578Z,79.30
2023-01-23T07:20:38.678Z,77.60
2023-01-23T07:23:06.847Z,81.47
2023-01-23T07:25:34.898Z,72.37
2023-01-23T07:28:04.562Z,91.90
2023-01-23T07:30:33.858Z,89.95
2023-01-23T07:33:02.159Z,85.53
2023-01-23T07:35:30.052Z,83.93
2023-01-23T07:37:58.372Z,84.20
2023-01-23T07:40:26.564Z,88.22
2023-01-23T07:42:54.615Z,79.50
2023-01-23T07:45:24.041Z,84.20
2023-01-23T07:47:52.088Z,82.87
2023-01-23T07:50:20.464Z,87.07
2023-01-23T07:52:48.820Z,83.80
2023-01-23T07:55:17.159Z,83.60
2023-01-23T07:57:45.302Z,87.73
2023-01-23T08:00:13.903Z,86.40
2023-01-23T08:02:43.314Z,83.47
2023-01-23T08:05:11.698Z,82.40
2023-01-23T08:07:40.069Z,86.30
2023-01-23T08:10:09.181Z,86.00
2023-01-23T08:12:37.201Z,87.73
2023-01-23T08:15:06.026Z,87.00
2023-01-23T08:17:34.090Z,88.80
2023-01-23T08:20:04.144Z,87.77
2023-01-23T08:22:33.382Z,85.83
2023-01-23T08:25:01.499Z,85.30
2023-01-23T08:27:29.675Z,87.60
2023-01-23T08:29:57.928Z,90.13
2023-01-23T08:32:26.085Z,87.23
2023-01-23T08:34:55.079Z,88.43
2023-01-23T08:37:24.694Z,87.07
2023-01-23T08:39:52.834Z,88.13
2023-01-23T08:42:20.976Z,89.97
2023-01-23T08:44:49.066Z,89.83
2023-01-23T08:47:17.219Z,90.80
2023-01-23T08:49:45.331Z,92.40
2023-01-23T08:52:13.466Z,92.80
2023-01-23T08:54:42.902Z,94.03
2023-01-23T08:57:11.063Z,90.90
2023-01-23T08:59:39.214Z,93.23
2023-01-23T09:02:07.800Z,91.40
2023-01-23T09:04:36.162Z,91.30
2023-01-23T09:07:04.282Z,90.67
2023-01-23T09:09:32.490Z,90.13
2023-01-23T09:12:01.965Z,91.27
2023-01-23T09:14:30.119Z,91.97
2023-01-23T09:16:58.242Z,91.47
2023-01-23T09:19:26.369Z,91.70
2023-01-23T09:21:56.968Z,93.70
2023-01-23T09:24:25.036Z,91.80
2023-01-23T09:26:53.084Z,90.10
2023-01-23T09:29:22.512Z,91.47
2023-01-23T09:31:50.610Z,91.17
2023-01-23T09:34:18.748Z,90.30
2023-01-23T09:36:46.811Z,89.93
2023-01-23T09:39:14.947Z,91.70
2023-01-23T09:41:45.704Z,91.60
2023-01-23T09:44:20.203Z,91.13
2023-01-23T09:46:52.341Z,86.67
2023-01-23T09:49:26.451Z,88.70
2023-01-23T09:51:59.909Z,89.23
2023-01-23T09:54:38.131Z,83.13
2023-01-23T09:57:14.964Z,85.43
2023-01-23T10:00:00.408Z,82.80
2023-01-23T10:02:30.600Z,79.13
2023-01-23T10:05:02.565Z,78.67
2023-01-23T10:07:46.651Z,74.80
2023-01-23T10:10:38.391Z,73.37
2023-01-23T10:13:10.113Z,67.97
2023-01-23T10:16:06.076Z,65.40
2023-01-23T10:18:44.171Z,65.67
2023-01-23T10:21:22.104Z,65.67
2023-01-23T10:24:02.599Z,64.47
2023-01-23T10:26:35.329Z,61.47
2023-01-23T10:29:11.252Z,68.23
2023-01-23T10:31:42.978Z,61.83
2023-01-23T10:34:19.792Z,56.40
2023-01-23T10:37:01.277Z,51.73
2023-01-23T10:39:35.223Z,51.57
2023-01-23T10:42:03.296Z,51.07
2023-01-23T10:44:31.423Z,51.17
2023-01-23T10:47:03.658Z,49.40
2023-01-23T10:49:36.463Z,48.60
2023-01-23T10:52:05.868Z,46.87
2023-01-23T10:54:46.782Z,46.50
2023-01-23T10:57:24.610Z,48.20
2023-01-23T10:59:57.265Z,49.23
2023-01-23T11:02:29.285Z,50.00
2023-01-23T11:04:59.267Z,47.47
2023-01-23T11:07:29.750Z,47.00
2023-01-23T11:10:00.673Z,44.60
2023-01-23T11:12:31.275Z,38.20
2023-01-23T11:15:14.815Z,35.57
2023-01-23T11:17:44.013Z,33.53
2023-01-23T11:20:25.421Z,32.90
2023-01-23T11:23:03.447Z,31.90
2023-01-23T11:25:33.626Z,30.63
2023-01-23T11:28:03.457Z,29.33
2023-01-23T11:30:44.503Z,28.40
2023-01-23T11:33:22.889Z,29.87
2023-01-23T11:36:07.948Z,28.53
2023-01-23T11:38:52.073Z,27.07
2023-01-23T11:41:29.832Z,26.67
2023-01-23T11:43:57.967Z,26.00
2023-01-23T11:46:42.026Z,26.63
2023-01-23T11:49:32.195Z,25.20
2023-01-23T11:52:19.566Z,25.80
2023-01-23T11:55:04.261Z,23.43
2023-01-23T11:57:41.984Z,23.60
2023-01-23T12:00:25.655Z,23.20
2023-01-23T12:03:31.600Z,23.20
2023-01-23T12:09:10.557Z,21.80
2023-01-23T12:11:51.408Z,24.80
2023-01-23T12:14:26.206Z,24.17
2023-01-23T12:17:08.790Z,21.70
2023-01-23T12:19:57.032Z,20.87
2023-01-23T12:22:35.925Z,21.00
2023-01-23T12:25:17.274Z,21.83
2023-01-23T12:27:47.251Z,21.97
2023-01-23T12:30:48.238Z,22.00
2023-01-23T12:33:27.076Z,22.90
2023-01-23T12:36:09.821Z,22.73
2023-01-23T12:38:50.011Z,22.20
2023-01-23T12:41:27.359Z,22.00
2023-01-23T12:44:00.520Z,23.10
2023-01-23T12:46:40.379Z,21.60
2023-01-23T12:49:26.193Z,20.13
2023-01-23T12:52:01.181Z,22.03
2023-01-23T12:54:35.668Z,19.60
2023-01-23T12:57:06.531Z,19.40
2023-01-23T12:59:53.964Z,19.17
2023-01-23T13:02:32.841Z,19.47
2023-01-23T13:05:13.865Z,20.50
2023-01-23T13:07:49.686Z,20.20
2023-01-23T13:10:48.980Z,20.23
2023-01-23T13:13:19.891Z,20.80
2023-01-23T13:16:03.722Z,21.20
2023-01-23T13:18:52.279Z,20.77
2023-01-23T13:21:52.629Z,21.07
2023-01-23T13:24:59.886Z,21.20
2023-01-23T13:27:37.670Z,20.27
2023-01-23T13:30:43.121Z,19.67
2023-01-23T13:33:58.771Z,20.60
2023-01-23T13:36:38.567Z,20.87
2023-01-23T13:39:26.508Z,20.40
2023-01-23T13:42:27.960Z,20.97
2023-01-23T13:45:27.357Z,20.80
2023-01-23T14:22:13.834Z,22.90
2023-01-23T14:24:45.123Z,23.17
2023-01-23T14:27:22.426Z,21.23
2023-01-23T14:29:58.663Z,21.60
2023-01-23T14:32:29.577Z,21.83
2023-01-23T14:34:57.700Z,21.50
2023-01-23T14:37:28.414Z,21.00
2023-01-23T14:39:59.768Z,26.13
2023-01-23T14:42:30.880Z,22.73
2023-01-23T14:45:01.970Z,21.97
2023-01-23T14:47:35.234Z,22.83
2023-01-23T14:50:04.779Z,22.00
2023-01-23T14:52:34.183Z,21.00
2023-01-23T14:55:07.733Z,20.77
2023-01-23T14:57:37.224Z,20.03
2023-01-23T15:00:06.516Z,19.80
2023-01-23T15:02:36.060Z,20.57
2023-01-23T15:05:18.365Z,20.03
2023-01-23T15:07:51.570Z,20.27
2023-01-23T15:10:22.756Z,21.03
2023-01-23T15:12:56.932Z,19.97
2023-01-23T15:15:27.444Z,20.07
2023-01-23T15:17:56.669Z,22.53
2023-01-23T15:20:36.316Z,19.97
2023-01-23T15:23:31.854Z,20.00
2023-01-23T15:26:24.587Z,20.23
2023-01-23T15:28:54.867Z,22.23
2023-01-23T15:31:27.401Z,20.33
2023-01-23T15:33:56.764Z,21.70
2023-01-23T15:36:28.514Z,22.17
2023-01-23T15:38:59.514Z,21.60
2023-01-23T15:41:40.952Z,20.40
2023-01-23T15:44:16.847Z,18.93
2023-01-23T15:46:45.275Z,20.00
2023-01-23T15:49:24.808Z,20.10
2023-01-23T15:51:56.510Z,20.10
2023-01-23T15:54:32.146Z,20.50
2023-01-23T15:57:07.557Z,22.50
2023-01-23T15:59:37.186Z,21.80
2023-01-23T16:02:05.959Z,22.30
2023-01-23T16:04:34.293Z,22.10
2023-01-23T16:07:07.037Z,21.30
2023-01-23T16:09:39.038Z,20.50
2023-01-23T16:12:10.632Z,21.10
2023-01-23T16:14:39.505Z,23.33
2023-01-23T16:17:16.254Z,24.23
2023-01-23T16:19:45.570Z,22.00
2023-01-23T16:22:18.869Z,23.20
2023-01-23T16:24:48.461Z,23.00
2023-01-23T16:27:19.097Z,22.50
2023-01-23T16:29:49.546Z,21.13
2023-01-23T16:32:18.040Z,20.90
2023-01-23T16:34:46.213Z,21.07
2023-01-23T16:37:16.327Z,20.80
2023-01-23T16:39:46.501Z,23.13
2023-01-23T16:42:22.388Z,22.40
2023-01-23T16:44:50.913Z,21.50
2023-01-23T16:47:19.079Z,21.87
2023-01-23T16:49:52.610Z,25.73
2023-01-23T16:52:24.570Z,26.00
2023-01-23T16:54:53.386Z,23.70
2023-01-23T16:57:23.196Z,24.10
2023-01-23T16:59:52.880Z,23.53
2023-01-23T17:02:23.717Z,26.73
2023-01-23T17:04:52.008Z,24.60
2023-01-23T17:07:20.960Z,27.13
2023-01-23T17:09:49.283Z,26.07
2023-01-23T17:12:21.918Z,26.97
2023-01-23T17:14:52.602Z,26.33
2023-01-23T17:17:27.663Z,24.73
2023-01-23T17:19:55.846Z,22.17
2023-01-23T17:22:27.414Z,25.70
2023-01-23T17:24:55.424Z,27.67
2023-01-23T17:27:23.526Z,23.20
2023-01-23T17:29:52.947Z,22.60
2023-01-23T17:32:30.404Z,23.80
2023-01-23T17:35:02.644Z,23.17
2023-01-23T17:37:31.656Z,26.17
2023-01-23T17:39:59.740Z,24.10
2023-01-23T17:42:27.895Z,24.53
2023-01-23T17:44:57.365Z,22.63
2023-01-23T17:47:25.689Z,23.97
2023-01-23T17:49:55.340Z,20.60
2023-01-23T17:52:24.927Z,21.87
2023-01-23T17:54:54.448Z,22.17
2023-01-23T17:57:22.688Z,23.10
2023-01-23T17:59:50.776Z,24.27
2023-01-23T18:02:29.672Z,24.20
2023-01-23T18:04:57.895Z,24.60
2023-01-23T18:07:25.969Z,25.30
2023-01-23T18:09:56.233Z,25.43
2023-01-23T18:12:31.790Z,28.88
2023-01-23T18:15:11.859Z,27.53
2023-01-23T18:17:48.776Z,26.37
2023-01-23T18:20:19.493Z,26.70
2023-01-23T18:22:48.659Z,26.00
2023-01-23T18:25:18.062Z,25.77
2023-01-23T18:27:50.212Z,26.20
2023-01-23T18:30:32.856Z,25.63
2023-01-23T18:33:16.301Z,25.80
2023-01-23T18:36:02.513Z,25.27
2023-01-23T18:38:37.555Z,24.53
2023-01-23T18:41:17.469Z,24.53
2023-01-23T18:43:51.312Z,24.60
2023-01-23T18:46:23.895Z,24.87
2023-01-23T18:48:54.265Z,28.20
2023-01-23T18:51:35.229Z,25.93
2023-01-23T18:54:12.913Z,24.50
2023-01-23T18:56:49.450Z,24.97
2023-01-23T18:59:23.647Z,25.07
2023-01-23T19:01:54.855Z,23.73
2023-01-23T19:04:31.789Z,22.80
2023-01-23T19:07:00.441Z,23.10
2023-01-23T19:09:32.870Z,24.50
2023-01-23T19:12:14.024Z,23.70
2023-01-23T19:15:02.148Z,24.53
2023-01-23T19:17:50.580Z,24.67
2023-01-23T19:20:29.676Z,22.50
2023-01-23T19:23:10.652Z,23.73
2023-01-23T19:25:38.983Z,23.43
2023-01-23T19:28:07.855Z,21.37
2023-01-23T19:30:37.017Z,21.03
2023-01-23T19:33:05.236Z,22.47
2023-01-23T19:35:34.511Z,23.33
2023-01-23T19:38:02.627Z,21.63
2023-01-23T19:40:30.684Z,22.80
2023-01-23T19:43:13.552Z,21.90
2023-01-23T19:45:41.979Z,22.70
2023-01-23T19:48:10.410Z,21.90
2023-01-23T19:50:40.207Z,22.27
2023-01-23T19:53:08.468Z,22.07
2023-01-23T19:55:38.375Z,22.17
2023-01-23T19:58:06.997Z,22.73
2023-01-23T20:00:36.406Z,22.40
2023-01-23T20:03:05.321Z,22.23
2023-01-23T20:05:33.533Z,23.57
2023-01-23T20:08:02.934Z,24.30
2023-01-23T20:10:31.157Z,24.37
2023-01-23T20:12:59.904Z,23.50
2023-01-23T20:15:28.009Z,22.90
2023-01-23T20:17:56.142Z,24.27
2023-01-23T20:20:24.519Z,22.47
2023-01-23T20:22:52.774Z,22.00
2023-01-23T20:25:22.510Z,22.30
2023-01-23T20:27:50.944Z,21.80
2023-01-23T20:30:20.388Z,23.10
2023-01-23T20:32:49.125Z,23.60
2023-01-23T20:35:17.352Z,23.00
2023-01-23T20:37:45.754Z,22.57
2023-01-23T20:40:13.845Z,22.37
2023-01-23T20:42:43.211Z,22.60
2023-01-23T20:45:11.639Z,22.73
2023-01-23T20:47:39.748Z,23.37
2023-01-23T20:50:10.189Z,22.10
2023-01-23T20:52:55.711Z,21.70
2023-01-23T20:55:24.103Z,20.70
2023-01-23T20:58:11.423Z,21.37
2023-01-23T21:00:39.552Z,22.07
2023-01-23T21:03:07.619Z,22.40
2023-01-23T21:05:35.697Z,23.00
2023-01-23T21:08:03.759Z,23.93
2023-01-23T21:10:31.834Z,24.10
2023-01-23T21:13:01.267Z,23.30
2023-01-23T21:15:31.634Z,22.80
2023-01-23T21:18:01.152Z,21.33
2023-01-23T21:20:29.265Z,21.63
2023-01-23T21:22:57.282Z,22.40
2023-01-23T21:25:25.480Z,23.30
2023-01-23T21:27:53.620Z,23.63
2023-01-23T21:30:23.108Z,23.23
2023-01-23T21:32:51.313Z,22.77
2023-01-23T21:35:19.580Z,22.70
2023-01-23T21:37:47.893Z,21.87
2023-01-23T21:40:16.542Z,23.53
2023-01-23T21:42:44.666Z,23.10
2023-01-23T21:45:13.018Z,22.63
2023-01-23T21:47:42.470Z,22.50
2023-01-23T21:50:11.915Z,22.60
2023-01-23T21:52:39.998Z,22.00
2023-01-23T21:55:09.066Z,22.80
2023-01-23T21:57:37.260Z,21.17
2023-01-23T22:00:24.024Z,21.03
2023-01-23T22:02:53.611Z,19.90
2023-01-23T22:05:21.955Z,20.83
2023-01-23T22:07:50.879Z,20.63
2023-01-23T22:10:19.104Z,20.70
2023-01-23T22:12:47.242Z,20.63
2023-01-23T22:15:15.388Z,19.70
2023-01-23T22:17:45.454Z,20.70
2023-01-23T22:20:15.367Z,20.90
2023-01-23T22:22:43.488Z,20.20
2023-01-23T22:25:11.736Z,20.33
2023-01-23T22:27:39.906Z,20.43
2023-01-23T22:30:09.401Z,20.40
2023-01-23T22:32:37.391Z,19.90
2023-01-23T22:35:05.991Z,20.80
2023-01-23T22:37:35.479Z,20.33
2023-01-23T22:40:03.780Z,19.07
2023-01-23T22:42:31.841Z,18.80
2023-01-23T22:45:00.070Z,19.80
2023-01-23T22:47:28.150Z,19.63
2023-01-23T22:49:56.202Z,20.87
2023-01-23T22:52:24.242Z,20.30
2023-01-23T22:54:53.678Z,19.60
2023-01-23T22:57:21.703Z,20.77
2023-01-23T22:59:49.801Z,21.13
2023-01-23T23:02:17.874Z,20.07
2023-01-23T23:04:48.102Z,20.70
2023-01-23T23:07:16.801Z,22.40
2023-01-23T23:09:45.205Z,20.50
2023-01-23T23:12:14.661Z,20.67
2023-01-23T23:14:42.734Z,20.50
2023-01-23T23:17:10.795Z,21.03
2023-01-23T23:19:39.037Z,20.90
2023-01-23T23:22:07.599Z,21.00
2023-01-23T23:24:35.653Z,20.53
2023-01-23T23:27:03.839Z,21.23
2023-01-23T23:29:33.545Z,20.50
2023-01-23T23:32:01.691Z,21.27
2023-01-23T23:34:30.037Z,21.37
2023-01-23T23:36:58.099Z,21.90
2023-01-23T23:39:26.611Z,21.50
2023-01-23T23:41:54.681Z,21.27
2023-01-23T23:44:22.897Z,20.70
2023-01-23T23:46:52.317Z,21.10
2023-01-23T23:49:22.010Z,20.77
2023-01-23T23:51:50.110Z,21.27
2023-01-23T23:54:18.139Z,22.40
2023-01-23T23:56:46.196Z,21.77
2023-01-23T23:59:16.267Z,21.40
